WZZ101 EPWA-LFMN
Flight info
| Callsign | WZZ101 |
|---|---|
| Flight time | 2h 21m |
| Altitude | 34000 |
| Route | EVINA DCT NAVUR DCT PADKA DCT OGDAS DCT UPLAV DCT LEDVA DCT VAMET DCT RADLY DCT MONFA/N0445F350 DCT BABAG DCT ARDAM DCT BIKTU DCT TOBGA/N0446F340 DCT DOBIM DCT AKUTI R16 KERIT |
| Aircraft | A321/M-SDE1E2E3FGIJ1J4RWXY/LB1 |
Departure
| Time | 2026-05-04 13:07 |
|---|---|
| Airport | Warsaw Chopin Airport (EPWA) |
Arrival
| Time | 2026-05-04 15:28 |
|---|---|
| Airport | Nice-Côte d'Azur Airport (LFMN) |
| Time | Latitude | Longitude | Altitude | Speed | Heading |
|---|---|---|---|---|---|
| 2026-05-04 12:35 | 52.17598 | 20.96323 | 339 ft | 0 kts | 242° |
| 2026-05-04 12:55 | 52.17601 | 20.96331 | 334 ft | 4 kts | 242° |
| 2026-05-04 12:55 | 52.17613 | 20.96368 | 334 ft | 4 kts | 242° |
| 2026-05-04 12:56 | 52.17626 | 20.96406 | 334 ft | 4 kts | 233° |
| 2026-05-04 12:56 | 52.17644 | 20.96435 | 334 ft | 4 kts | 203° |
| 2026-05-04 12:56 | 52.17667 | 20.96441 | 336 ft | 4 kts | 156° |
| 2026-05-04 12:56 | 52.17672 | 20.96438 | 336 ft | 0 kts | 152° |
| 2026-05-04 12:59 | 52.17669 | 20.96440 | 336 ft | 2 kts | 152° |
| 2026-05-04 12:59 | 52.17641 | 20.96465 | 335 ft | 5 kts | 152° |
| 2026-05-04 12:59 | 52.17605 | 20.96496 | 337 ft | 6 kts | 152° |
| 2026-05-04 13:00 | 52.17562 | 20.96533 | 335 ft | 7 kts | 152° |
| 2026-05-04 13:00 | 52.17511 | 20.96556 | 337 ft | 8 kts | 189° |
| 2026-05-04 13:00 | 52.17469 | 20.96497 | 336 ft | 9 kts | 236° |
| 2026-05-04 13:00 | 52.17433 | 20.96413 | 336 ft | 9 kts | 225° |
| 2026-05-04 13:01 | 52.17373 | 20.96411 | 337 ft | 10 kts | 154° |
| 2026-05-04 13:01 | 52.17309 | 20.96467 | 335 ft | 11 kts | 152° |
| 2026-05-04 13:01 | 52.17240 | 20.96527 | 337 ft | 12 kts | 152° |
| 2026-05-04 13:01 | 52.17165 | 20.96593 | 336 ft | 13 kts | 152° |
| 2026-05-04 13:02 | 52.17086 | 20.96661 | 337 ft | 13 kts | 152° |
| 2026-05-04 13:02 | 52.17017 | 20.96721 | 337 ft | 9 kts | 152° |
| 2026-05-04 13:02 | 52.16956 | 20.96775 | 337 ft | 10 kts | 152° |
| 2026-05-04 13:02 | 52.16890 | 20.96832 | 334 ft | 11 kts | 152° |
| 2026-05-04 13:03 | 52.16819 | 20.96895 | 336 ft | 12 kts | 152° |
| 2026-05-04 13:03 | 52.16742 | 20.96961 | 335 ft | 13 kts | 152° |
| 2026-05-04 13:03 | 52.16660 | 20.97033 | 337 ft | 14 kts | 152° |
| 2026-05-04 13:03 | 52.16572 | 20.97110 | 337 ft | 15 kts | 152° |
| 2026-05-04 13:04 | 52.16482 | 20.97188 | 335 ft | 14 kts | 152° |
| 2026-05-04 13:04 | 52.16417 | 20.97282 | 334 ft | 13 kts | 120° |
| 2026-05-04 13:04 | 52.16377 | 20.97415 | 335 ft | 13 kts | 115° |
| 2026-05-04 13:04 | 52.16339 | 20.97551 | 336 ft | 14 kts | 114° |
| 2026-05-04 13:05 | 52.16299 | 20.97697 | 334 ft | 14 kts | 114° |
| 2026-05-04 13:05 | 52.16266 | 20.97848 | 355 ft | 14 kts | 102° |
| 2026-05-04 13:05 | 52.16247 | 20.98010 | 337 ft | 12 kts | 101° |
| 2026-05-04 13:05 | 52.16229 | 20.98032 | 339 ft | 3 kts | 224° |
| 2026-05-04 13:06 | 52.16220 | 20.97990 | 338 ft | 5 kts | 270° |
| 2026-05-04 13:06 | 52.16231 | 20.97938 | 333 ft | 0 kts | 295° |
| 2026-05-04 13:06 | 52.16285 | 20.97748 | 336 ft | 51 kts | 294° |
| 2026-05-04 13:07 | 52.16530 | 20.96864 | 335 ft | 117 kts | 294° |
| 2026-05-04 13:07 | 52.16927 | 20.95389 | 377 ft | 164 kts | 291° |
| 2026-05-04 13:07 | 52.17359 | 20.93734 | 1083 ft | 155 kts | 289° |
| 2026-05-04 13:07 | 52.17813 | 20.92116 | 1720 ft | 157 kts | 292° |
| 2026-05-04 13:08 | 52.18215 | 20.90451 | 2304 ft | 164 kts | 275° |
| 2026-05-04 13:08 | 52.17993 | 20.88536 | 2654 ft | 184 kts | 240° |
| 2026-05-04 13:08 | 52.16969 | 20.87139 | 2905 ft | 208 kts | 200° |
| 2026-05-04 13:08 | 52.15494 | 20.86936 | 3480 ft | 218 kts | 183° |
| 2026-05-04 13:09 | 52.14029 | 20.86558 | 4301 ft | 210 kts | 201° |
| 2026-05-04 13:09 | 52.12700 | 20.85754 | 5140 ft | 205 kts | 207° |
| 2026-05-04 13:09 | 52.11370 | 20.84634 | 5556 ft | 226 kts | 212° |
| 2026-05-04 13:09 | 52.09919 | 20.83295 | 5866 ft | 250 kts | 211° |
| 2026-05-04 13:10 | 52.08334 | 20.81908 | 6354 ft | 263 kts | 210° |
| 2026-05-04 13:10 | 52.06670 | 20.80569 | 7038 ft | 268 kts | 207° |
| 2026-05-04 13:10 | 52.04991 | 20.79313 | 7758 ft | 271 kts | 206° |
| 2026-05-04 13:10 | 52.03255 | 20.78058 | 8495 ft | 273 kts | 210° |
| 2026-05-04 13:11 | 52.01689 | 20.76304 | 9158 ft | 274 kts | 220° |
| 2026-05-04 13:11 | 52.00170 | 20.74393 | 9878 ft | 277 kts | 220° |
| 2026-05-04 13:11 | 51.98626 | 20.72443 | 10333 ft | 291 kts | 220° |
| 2026-05-04 13:11 | 51.96988 | 20.70372 | 10500 ft | 313 kts | 220° |
| 2026-05-04 13:12 | 51.95223 | 20.68145 | 10787 ft | 329 kts | 219° |
| 2026-05-04 13:12 | 51.93392 | 20.65843 | 11398 ft | 333 kts | 219° |
| 2026-05-04 13:12 | 51.91551 | 20.63534 | 12083 ft | 336 kts | 219° |
| 2026-05-04 13:12 | 51.89692 | 20.61209 | 12756 ft | 338 kts | 219° |
| 2026-05-04 13:13 | 51.87827 | 20.58880 | 13423 ft | 340 kts | 219° |
| 2026-05-04 13:13 | 51.85946 | 20.56530 | 14030 ft | 343 kts | 219° |
| 2026-05-04 13:13 | 51.84050 | 20.54164 | 14647 ft | 345 kts | 219° |
| 2026-05-04 13:13 | 51.82144 | 20.51785 | 15250 ft | 348 kts | 219° |
| 2026-05-04 13:14 | 51.80244 | 20.49416 | 15810 ft | 351 kts | 219° |
| 2026-05-04 13:14 | 51.78306 | 20.47003 | 16432 ft | 353 kts | 220° |
| 2026-05-04 13:14 | 51.76350 | 20.44573 | 17023 ft | 356 kts | 219° |
| 2026-05-04 13:14 | 51.74379 | 20.42123 | 17594 ft | 359 kts | 219° |
| 2026-05-04 13:15 | 51.72394 | 20.39653 | 18178 ft | 361 kts | 220° |
| 2026-05-04 13:15 | 51.70395 | 20.37167 | 18665 ft | 364 kts | 219° |
| 2026-05-04 13:15 | 51.68379 | 20.34664 | 19146 ft | 368 kts | 219° |
| 2026-05-04 13:15 | 51.66338 | 20.32141 | 19614 ft | 371 kts | 219° |
| 2026-05-04 13:16 | 51.64276 | 20.29598 | 20075 ft | 375 kts | 219° |
| 2026-05-04 13:16 | 51.62191 | 20.27030 | 20554 ft | 379 kts | 219° |
| 2026-05-04 13:16 | 51.60113 | 20.24473 | 21019 ft | 382 kts | 219° |
| 2026-05-04 13:16 | 51.57984 | 20.21853 | 21475 ft | 386 kts | 219° |
| 2026-05-04 13:17 | 51.55842 | 20.19218 | 21919 ft | 389 kts | 219° |
| 2026-05-04 13:17 | 51.53676 | 20.16559 | 22373 ft | 392 kts | 219° |
| 2026-05-04 13:17 | 51.51495 | 20.13888 | 22802 ft | 396 kts | 219° |
| 2026-05-04 13:17 | 51.49291 | 20.11191 | 23219 ft | 399 kts | 219° |
| 2026-05-04 13:18 | 51.47099 | 20.08508 | 23626 ft | 402 kts | 219° |
| 2026-05-04 13:18 | 51.44868 | 20.05779 | 23975 ft | 405 kts | 219° |
| 2026-05-04 13:18 | 51.42613 | 20.03025 | 24326 ft | 407 kts | 219° |
| 2026-05-04 13:18 | 51.40346 | 20.00262 | 24706 ft | 409 kts | 219° |
| 2026-05-04 13:19 | 51.38067 | 19.97485 | 25057 ft | 412 kts | 219° |
| 2026-05-04 13:19 | 51.36555 | 19.95644 | 25300 ft | 413 kts | 219° |
| 2026-05-04 13:19 | 51.33479 | 19.91911 | 25771 ft | 416 kts | 219° |
| 2026-05-04 13:19 | 51.31193 | 19.89143 | 26112 ft | 418 kts | 219° |
| 2026-05-04 13:20 | 51.29622 | 19.87243 | 26346 ft | 420 kts | 219° |
| 2026-05-04 13:20 | 51.27311 | 19.84452 | 26689 ft | 422 kts | 219° |
| 2026-05-04 13:20 | 51.24168 | 19.80656 | 27137 ft | 425 kts | 219° |
| 2026-05-04 13:20 | 51.22605 | 19.78767 | 27352 ft | 426 kts | 219° |
| 2026-05-04 13:21 | 51.20231 | 19.75903 | 27690 ft | 428 kts | 219° |
| 2026-05-04 13:21 | 51.17066 | 19.72094 | 28108 ft | 431 kts | 219° |
| 2026-05-04 13:21 | 51.14652 | 19.69197 | 28422 ft | 433 kts | 219° |
| 2026-05-04 13:21 | 51.13054 | 19.67279 | 28626 ft | 435 kts | 219° |
| 2026-05-04 13:22 | 51.09829 | 19.63413 | 29046 ft | 437 kts | 218° |
| 2026-05-04 13:22 | 51.08186 | 19.61445 | 29248 ft | 439 kts | 218° |
| 2026-05-04 13:22 | 51.05763 | 19.58547 | 29555 ft | 441 kts | 218° |
| 2026-05-04 13:22 | 51.03298 | 19.55600 | 29867 ft | 443 kts | 218° |
| 2026-05-04 13:23 | 51.00816 | 19.52640 | 30158 ft | 445 kts | 218° |
| 2026-05-04 13:23 | 50.98330 | 19.49686 | 30487 ft | 445 kts | 218° |
| 2026-05-04 13:23 | 50.95887 | 19.46788 | 30855 ft | 444 kts | 218° |
| 2026-05-04 13:23 | 50.93405 | 19.43848 | 31231 ft | 443 kts | 218° |
| 2026-05-04 13:24 | 50.90937 | 19.40923 | 31594 ft | 442 kts | 218° |
| 2026-05-04 13:24 | 50.88478 | 19.38010 | 31952 ft | 441 kts | 218° |
| 2026-05-04 13:24 | 50.86018 | 19.35104 | 32315 ft | 440 kts | 218° |
| 2026-05-04 13:25 | 50.81137 | 19.29343 | 33022 ft | 439 kts | 218° |
| 2026-05-04 13:25 | 50.78688 | 19.26452 | 33370 ft | 438 kts | 218° |
| 2026-05-04 13:25 | 50.76242 | 19.23568 | 33722 ft | 437 kts | 218° |
| 2026-05-04 13:25 | 50.73833 | 19.20732 | 33956 ft | 438 kts | 218° |
| 2026-05-04 13:26 | 50.68968 | 19.15034 | 33993 ft | 432 kts | 218° |
| 2026-05-04 13:26 | 50.64142 | 19.09397 | 33999 ft | 431 kts | 218° |
| 2026-05-04 13:27 | 50.59339 | 19.03793 | 34000 ft | 431 kts | 218° |
| 2026-05-04 13:27 | 50.54519 | 18.98197 | 34003 ft | 431 kts | 218° |
| 2026-05-04 13:28 | 50.49675 | 18.92580 | 34005 ft | 431 kts | 218° |
| 2026-05-04 13:28 | 50.44837 | 18.86976 | 34006 ft | 432 kts | 218° |
| 2026-05-04 13:29 | 50.40020 | 18.81406 | 34007 ft | 432 kts | 218° |
| 2026-05-04 13:29 | 50.35164 | 18.75816 | 34012 ft | 432 kts | 218° |
| 2026-05-04 13:30 | 50.30308 | 18.70250 | 34006 ft | 432 kts | 218° |
| 2026-05-04 13:30 | 50.25480 | 18.64739 | 34008 ft | 432 kts | 218° |
| 2026-05-04 13:31 | 50.20616 | 18.59177 | 34007 ft | 432 kts | 218° |
| 2026-05-04 13:31 | 50.15778 | 18.53653 | 34009 ft | 433 kts | 218° |
| 2026-05-04 13:32 | 50.10908 | 18.48113 | 34005 ft | 432 kts | 218° |
| 2026-05-04 13:32 | 50.06030 | 18.42585 | 34005 ft | 432 kts | 218° |
| 2026-05-04 13:33 | 50.01182 | 18.37114 | 34006 ft | 433 kts | 218° |
| 2026-05-04 13:33 | 49.96311 | 18.31621 | 34014 ft | 432 kts | 218° |
| 2026-05-04 13:34 | 49.91478 | 18.26026 | 34018 ft | 432 kts | 220° |
| 2026-05-04 13:34 | 49.86924 | 18.20023 | 34032 ft | 431 kts | 223° |
| 2026-05-04 13:35 | 49.80172 | 18.10784 | 34011 ft | 431 kts | 223° |
| 2026-05-04 13:36 | 49.75616 | 18.04730 | 34007 ft | 431 kts | 222° |
| 2026-05-04 13:36 | 49.71030 | 17.98724 | 34007 ft | 431 kts | 222° |
| 2026-05-04 13:37 | 49.66393 | 17.92909 | 34005 ft | 432 kts | 219° |
| 2026-05-04 13:37 | 49.61589 | 17.87284 | 34004 ft | 432 kts | 218° |
| 2026-05-04 13:38 | 49.56811 | 17.81728 | 34022 ft | 432 kts | 219° |
| 2026-05-04 13:38 | 49.52026 | 17.76090 | 34015 ft | 432 kts | 219° |
| 2026-05-04 13:39 | 49.47253 | 17.70435 | 34009 ft | 432 kts | 219° |
| 2026-05-04 13:39 | 49.42506 | 17.64827 | 34017 ft | 432 kts | 219° |
| 2026-05-04 13:40 | 49.37725 | 17.59201 | 34013 ft | 432 kts | 219° |
| 2026-05-04 13:40 | 49.32967 | 17.53641 | 34011 ft | 432 kts | 219° |
| 2026-05-04 13:41 | 49.28233 | 17.47910 | 34036 ft | 433 kts | 221° |
| 2026-05-04 13:41 | 49.23638 | 17.42029 | 34036 ft | 433 kts | 222° |
| 2026-05-04 13:42 | 49.16679 | 17.33176 | 34020 ft | 433 kts | 221° |
| 2026-05-04 13:42 | 49.12049 | 17.27380 | 34031 ft | 433 kts | 221° |
| 2026-05-04 13:43 | 49.07374 | 17.21560 | 34032 ft | 433 kts | 221° |
| 2026-05-04 13:43 | 49.02702 | 17.15749 | 34032 ft | 434 kts | 221° |
| 2026-05-04 13:44 | 48.98020 | 17.09919 | 34028 ft | 434 kts | 221° |
| 2026-05-04 13:44 | 48.93367 | 17.04147 | 34026 ft | 434 kts | 221° |
| 2026-05-04 13:45 | 48.88672 | 16.98337 | 34010 ft | 434 kts | 221° |
| 2026-05-04 13:45 | 48.83975 | 16.92544 | 34010 ft | 435 kts | 221° |
| 2026-05-04 13:46 | 48.79298 | 16.86801 | 34015 ft | 435 kts | 221° |
| 2026-05-04 13:46 | 48.74585 | 16.81024 | 34007 ft | 435 kts | 221° |
| 2026-05-04 13:47 | 48.69441 | 16.76219 | 34001 ft | 438 kts | 210° |
| 2026-05-04 13:47 | 48.64018 | 16.71951 | 34002 ft | 438 kts | 210° |
| 2026-05-04 13:48 | 48.58596 | 16.67667 | 34000 ft | 439 kts | 210° |
| 2026-05-04 13:48 | 48.53194 | 16.63421 | 33993 ft | 439 kts | 210° |
| 2026-05-04 13:49 | 48.47755 | 16.59165 | 33994 ft | 440 kts | 210° |
| 2026-05-04 13:49 | 48.42349 | 16.54942 | 33990 ft | 440 kts | 210° |
| 2026-05-04 13:50 | 48.36891 | 16.50693 | 33989 ft | 440 kts | 210° |
| 2026-05-04 13:50 | 48.31477 | 16.46485 | 33987 ft | 440 kts | 210° |
| 2026-05-04 13:51 | 48.26033 | 16.42261 | 33986 ft | 440 kts | 210° |
| 2026-05-04 13:51 | 48.20585 | 16.38048 | 33986 ft | 440 kts | 210° |
| 2026-05-04 13:52 | 48.12391 | 16.31716 | 33986 ft | 441 kts | 210° |
| 2026-05-04 13:53 | 48.06960 | 16.27542 | 33965 ft | 442 kts | 210° |
| 2026-05-04 13:53 | 48.01468 | 16.23333 | 33971 ft | 442 kts | 210° |
| 2026-05-04 13:54 | 47.93242 | 16.17045 | 33973 ft | 442 kts | 210° |
| 2026-05-04 13:55 | 47.85029 | 16.10794 | 33983 ft | 443 kts | 210° |
| 2026-05-04 13:55 | 47.76783 | 16.04526 | 33989 ft | 443 kts | 210° |
| 2026-05-04 13:56 | 47.71325 | 16.00374 | 33996 ft | 443 kts | 210° |
| 2026-05-04 13:57 | 47.63064 | 15.94148 | 34006 ft | 443 kts | 210° |
| 2026-05-04 13:58 | 47.52076 | 15.85889 | 34019 ft | 444 kts | 210° |
| 2026-05-04 13:58 | 47.43787 | 15.79689 | 34014 ft | 444 kts | 209° |
| 2026-05-04 13:59 | 47.38283 | 15.75572 | 34023 ft | 443 kts | 209° |
| 2026-05-04 14:00 | 47.30053 | 15.69449 | 34024 ft | 443 kts | 209° |
| 2026-05-04 14:00 | 47.21774 | 15.63315 | 34015 ft | 443 kts | 209° |
| 2026-05-04 14:01 | 47.16294 | 15.59272 | 34017 ft | 443 kts | 208° |
| 2026-05-04 14:02 | 47.08018 | 15.53168 | 34020 ft | 442 kts | 209° |
| 2026-05-04 14:02 | 47.02543 | 15.49143 | 34025 ft | 442 kts | 208° |
| 2026-05-04 14:03 | 46.97024 | 15.45088 | 34022 ft | 441 kts | 208° |
| 2026-05-04 14:03 | 46.91516 | 15.41071 | 34016 ft | 441 kts | 208° |
| 2026-05-04 14:04 | 46.83311 | 15.35083 | 34008 ft | 441 kts | 208° |
| 2026-05-04 14:04 | 46.77816 | 15.31080 | 34028 ft | 440 kts | 208° |
| 2026-05-04 14:05 | 46.69664 | 15.24870 | 34038 ft | 439 kts | 211° |
| 2026-05-04 14:06 | 46.64541 | 15.20097 | 34027 ft | 435 kts | 224° |
| 2026-05-04 14:06 | 46.60497 | 15.13681 | 34037 ft | 432 kts | 232° |
| 2026-05-04 14:07 | 46.56630 | 15.07046 | 34031 ft | 431 kts | 232° |
| 2026-05-04 14:07 | 46.52739 | 15.00403 | 34047 ft | 431 kts | 231° |
| 2026-05-04 14:08 | 46.48864 | 14.93782 | 34063 ft | 430 kts | 232° |
| 2026-05-04 14:08 | 46.45640 | 14.88274 | 34051 ft | 429 kts | 232° |
| 2026-05-04 14:09 | 46.39820 | 14.78361 | 34081 ft | 429 kts | 231° |
| 2026-05-04 14:10 | 46.34017 | 14.68552 | 34081 ft | 428 kts | 231° |
| 2026-05-04 14:10 | 46.30140 | 14.62016 | 34078 ft | 428 kts | 231° |
| 2026-05-04 14:11 | 46.26268 | 14.55469 | 34077 ft | 428 kts | 231° |
| 2026-05-04 14:11 | 46.20468 | 14.45704 | 34072 ft | 427 kts | 231° |
| 2026-05-04 14:12 | 46.16586 | 14.39209 | 34068 ft | 427 kts | 231° |
| 2026-05-04 14:13 | 46.10751 | 14.29472 | 34076 ft | 427 kts | 231° |
| 2026-05-04 14:13 | 46.06889 | 14.23026 | 34086 ft | 427 kts | 231° |
| 2026-05-04 14:14 | 46.02995 | 14.16549 | 34078 ft | 427 kts | 231° |
| 2026-05-04 14:14 | 45.97132 | 14.06849 | 34101 ft | 428 kts | 231° |
| 2026-05-04 14:15 | 45.89339 | 13.93999 | 34106 ft | 428 kts | 230° |
| 2026-05-04 14:16 | 45.83461 | 13.84331 | 34110 ft | 429 kts | 230° |
| 2026-05-04 14:17 | 45.77551 | 13.74659 | 34112 ft | 430 kts | 229° |
| 2026-05-04 14:18 | 45.71637 | 13.65012 | 34114 ft | 431 kts | 229° |
| 2026-05-04 14:19 | 45.63974 | 13.52549 | 34100 ft | 431 kts | 229° |
| 2026-05-04 14:19 | 45.60033 | 13.46153 | 34104 ft | 430 kts | 229° |
| 2026-05-04 14:20 | 45.56057 | 13.39732 | 34106 ft | 430 kts | 229° |
| 2026-05-04 14:20 | 45.52114 | 13.33387 | 34104 ft | 429 kts | 229° |
| 2026-05-04 14:21 | 45.46137 | 13.23868 | 34103 ft | 428 kts | 227° |
| 2026-05-04 14:21 | 45.42063 | 13.17702 | 34101 ft | 428 kts | 226° |
| 2026-05-04 14:22 | 45.37827 | 13.11761 | 34095 ft | 427 kts | 218° |
| 2026-05-04 14:22 | 45.33084 | 13.06738 | 34095 ft | 427 kts | 217° |
| 2026-05-04 14:23 | 45.25972 | 12.99145 | 34090 ft | 426 kts | 217° |
| 2026-05-04 14:24 | 45.21244 | 12.94125 | 34088 ft | 425 kts | 217° |
| 2026-05-04 14:24 | 45.16498 | 12.89104 | 34088 ft | 425 kts | 217° |
| 2026-05-04 14:25 | 45.11752 | 12.84085 | 34083 ft | 424 kts | 217° |
| 2026-05-04 14:25 | 45.04669 | 12.76625 | 34081 ft | 425 kts | 217° |
| 2026-05-04 14:26 | 44.99906 | 12.71625 | 34076 ft | 425 kts | 217° |
| 2026-05-04 14:26 | 44.95179 | 12.66673 | 34076 ft | 426 kts | 217° |
| 2026-05-04 14:27 | 44.90419 | 12.61692 | 34070 ft | 426 kts | 217° |
| 2026-05-04 14:27 | 44.85644 | 12.56694 | 34072 ft | 427 kts | 217° |
| 2026-05-04 14:28 | 44.80887 | 12.51734 | 34074 ft | 427 kts | 217° |
| 2026-05-04 14:28 | 44.76231 | 12.46516 | 34075 ft | 427 kts | 221° |
| 2026-05-04 14:29 | 44.67391 | 12.35298 | 34078 ft | 428 kts | 222° |
| 2026-05-04 14:30 | 44.62938 | 12.29779 | 34079 ft | 428 kts | 222° |
| 2026-05-04 14:31 | 44.56216 | 12.21562 | 34091 ft | 428 kts | 222° |
| 2026-05-04 14:32 | 44.47263 | 12.10648 | 34096 ft | 427 kts | 222° |
| 2026-05-04 14:32 | 44.42774 | 12.05175 | 34094 ft | 426 kts | 223° |
| 2026-05-04 14:33 | 44.38304 | 11.99733 | 34094 ft | 426 kts | 223° |
| 2026-05-04 14:33 | 44.33844 | 11.94325 | 34095 ft | 426 kts | 223° |
| 2026-05-04 14:34 | 44.29364 | 11.88899 | 34097 ft | 425 kts | 223° |
| 2026-05-04 14:34 | 44.24917 | 11.83530 | 33936 ft | 421 kts | 223° |
| 2026-05-04 14:35 | 44.20431 | 11.78123 | 33736 ft | 433 kts | 223° |
| 2026-05-04 14:35 | 44.18145 | 11.75371 | 33622 ft | 434 kts | 223° |
| 2026-05-04 14:35 | 44.15861 | 11.72630 | 33521 ft | 434 kts | 223° |
| 2026-05-04 14:35 | 44.13572 | 11.69887 | 33410 ft | 433 kts | 223° |
| 2026-05-04 14:36 | 44.11294 | 11.67163 | 33303 ft | 432 kts | 223° |
| 2026-05-04 14:36 | 44.09012 | 11.64432 | 33129 ft | 431 kts | 223° |
| 2026-05-04 14:36 | 44.06745 | 11.61712 | 33089 ft | 429 kts | 223° |
| 2026-05-04 14:37 | 44.02207 | 11.56278 | 33118 ft | 430 kts | 223° |
| 2026-05-04 14:37 | 43.98006 | 11.50494 | 33120 ft | 427 kts | 230° |
| 2026-05-04 14:38 | 43.94044 | 11.44346 | 33102 ft | 427 kts | 230° |
| 2026-05-04 14:38 | 43.90067 | 11.38212 | 33109 ft | 426 kts | 230° |
| 2026-05-04 14:39 | 43.86091 | 11.32100 | 33110 ft | 426 kts | 230° |
| 2026-05-04 14:39 | 43.82129 | 11.26009 | 33110 ft | 425 kts | 230° |
| 2026-05-04 14:40 | 43.76208 | 11.16931 | 33111 ft | 424 kts | 230° |
| 2026-05-04 14:40 | 43.72236 | 11.10877 | 33111 ft | 424 kts | 230° |
| 2026-05-04 14:41 | 43.68294 | 11.04863 | 33117 ft | 423 kts | 230° |
| 2026-05-04 14:42 | 43.60383 | 10.92826 | 33111 ft | 422 kts | 230° |
| 2026-05-04 14:42 | 43.56429 | 10.86843 | 33113 ft | 421 kts | 231° |
| 2026-05-04 14:43 | 43.52507 | 10.80909 | 33112 ft | 421 kts | 231° |
| 2026-05-04 14:43 | 43.48553 | 10.74942 | 33117 ft | 420 kts | 231° |
| 2026-05-04 14:44 | 43.44624 | 10.69038 | 33116 ft | 419 kts | 231° |
| 2026-05-04 14:44 | 43.40685 | 10.63114 | 33119 ft | 418 kts | 231° |
| 2026-05-04 14:45 | 43.36757 | 10.57220 | 33120 ft | 417 kts | 231° |
| 2026-05-04 14:45 | 43.32862 | 10.51395 | 33117 ft | 415 kts | 231° |
| 2026-05-04 14:46 | 43.29046 | 10.45706 | 33110 ft | 389 kts | 231° |
| 2026-05-04 14:46 | 43.27247 | 10.43037 | 33112 ft | 374 kts | 232° |
| 2026-05-04 14:46 | 43.25506 | 10.40457 | 33082 ft | 361 kts | 232° |
| 2026-05-04 14:47 | 43.23904 | 10.37883 | 32662 ft | 354 kts | 241° |
| 2026-05-04 14:47 | 43.22610 | 10.35037 | 32307 ft | 349 kts | 242° |
| 2026-05-04 14:47 | 43.21346 | 10.32235 | 32043 ft | 343 kts | 242° |
| 2026-05-04 14:47 | 43.20095 | 10.29468 | 31776 ft | 339 kts | 242° |
| 2026-05-04 14:48 | 43.18854 | 10.26718 | 31531 ft | 337 kts | 242° |
| 2026-05-04 14:48 | 43.17638 | 10.24016 | 31287 ft | 335 kts | 242° |
| 2026-05-04 14:48 | 43.16414 | 10.21293 | 31033 ft | 334 kts | 242° |
| 2026-05-04 14:48 | 43.15193 | 10.18579 | 30784 ft | 333 kts | 242° |
| 2026-05-04 14:49 | 43.13979 | 10.15884 | 30540 ft | 332 kts | 242° |
| 2026-05-04 14:49 | 43.12767 | 10.13200 | 30294 ft | 331 kts | 242° |
| 2026-05-04 14:49 | 43.11572 | 10.10553 | 30108 ft | 330 kts | 242° |
| 2026-05-04 14:49 | 43.10364 | 10.07881 | 30085 ft | 329 kts | 242° |
| 2026-05-04 14:50 | 43.07941 | 10.02532 | 30085 ft | 329 kts | 242° |
| 2026-05-04 14:50 | 43.05544 | 9.97240 | 30075 ft | 328 kts | 242° |
| 2026-05-04 14:51 | 43.03080 | 9.91811 | 30081 ft | 346 kts | 242° |
| 2026-05-04 14:51 | 43.01785 | 9.88965 | 30080 ft | 358 kts | 241° |
| 2026-05-04 14:51 | 43.00470 | 9.86085 | 30077 ft | 365 kts | 241° |
| 2026-05-04 14:52 | 42.97819 | 9.80116 | 30065 ft | 366 kts | 248° |
| 2026-05-04 14:52 | 42.97013 | 9.76835 | 30072 ft | 362 kts | 261° |
| 2026-05-04 14:52 | 42.96808 | 9.73435 | 29995 ft | 357 kts | 272° |
| 2026-05-04 14:53 | 42.97193 | 9.70122 | 29711 ft | 351 kts | 285° |
| 2026-05-04 14:53 | 42.97754 | 9.68064 | 29521 ft | 348 kts | 292° |
| 2026-05-04 14:53 | 42.98789 | 9.65097 | 29240 ft | 342 kts | 292° |
| 2026-05-04 14:53 | 43.00118 | 9.61240 | 28872 ft | 334 kts | 292° |
| 2026-05-04 14:54 | 43.01089 | 9.58387 | 28602 ft | 328 kts | 291° |
| 2026-05-04 14:54 | 43.01731 | 9.56491 | 28418 ft | 324 kts | 291° |
| 2026-05-04 14:54 | 43.02656 | 9.53759 | 28158 ft | 318 kts | 291° |
| 2026-05-04 14:54 | 43.03584 | 9.51020 | 27888 ft | 316 kts | 291° |
| 2026-05-04 14:55 | 43.04805 | 9.47412 | 27541 ft | 315 kts | 291° |
| 2026-05-04 14:55 | 43.05426 | 9.45578 | 27359 ft | 314 kts | 291° |
| 2026-05-04 14:55 | 43.06342 | 9.42870 | 27104 ft | 313 kts | 291° |
| 2026-05-04 14:55 | 43.07258 | 9.40169 | 26850 ft | 312 kts | 291° |
| 2026-05-04 14:56 | 43.08158 | 9.37512 | 26600 ft | 312 kts | 291° |
| 2026-05-04 14:56 | 43.09066 | 9.34822 | 26352 ft | 311 kts | 291° |
| 2026-05-04 14:56 | 43.09970 | 9.32140 | 26102 ft | 310 kts | 291° |
| 2026-05-04 14:56 | 43.10875 | 9.29451 | 25853 ft | 309 kts | 291° |
| 2026-05-04 14:57 | 43.11775 | 9.26776 | 25609 ft | 309 kts | 291° |
| 2026-05-04 14:57 | 43.12662 | 9.24136 | 25371 ft | 309 kts | 291° |
| 2026-05-04 14:57 | 43.13559 | 9.21465 | 25133 ft | 307 kts | 291° |
| 2026-05-04 14:57 | 43.14452 | 9.18805 | 24896 ft | 307 kts | 292° |
| 2026-05-04 14:58 | 43.15342 | 9.16148 | 24657 ft | 307 kts | 292° |
| 2026-05-04 14:58 | 43.16232 | 9.13489 | 24426 ft | 306 kts | 292° |
| 2026-05-04 14:58 | 43.17112 | 9.10865 | 24191 ft | 305 kts | 292° |
| 2026-05-04 14:58 | 43.17988 | 9.08256 | 23961 ft | 305 kts | 292° |
| 2026-05-04 14:59 | 43.18875 | 9.05612 | 23740 ft | 304 kts | 292° |
| 2026-05-04 14:59 | 43.19756 | 9.02969 | 23501 ft | 304 kts | 292° |
| 2026-05-04 14:59 | 43.21506 | 8.97707 | 22952 ft | 301 kts | 292° |
| 2026-05-04 15:00 | 43.22365 | 8.95124 | 22688 ft | 300 kts | 292° |
| 2026-05-04 15:00 | 43.23231 | 8.92521 | 22424 ft | 299 kts | 291° |
| 2026-05-04 15:00 | 43.24090 | 8.89934 | 22153 ft | 297 kts | 291° |
| 2026-05-04 15:01 | 43.25831 | 8.84687 | 20963 ft | 312 kts | 291° |
| 2026-05-04 15:01 | 43.26737 | 8.81956 | 20459 ft | 315 kts | 291° |
| 2026-05-04 15:01 | 43.27633 | 8.79255 | 20040 ft | 314 kts | 291° |
| 2026-05-04 15:01 | 43.28537 | 8.76518 | 19637 ft | 314 kts | 291° |
| 2026-05-04 15:02 | 43.29440 | 8.73785 | 19232 ft | 313 kts | 291° |
| 2026-05-04 15:02 | 43.30342 | 8.71054 | 18815 ft | 313 kts | 290° |
| 2026-05-04 15:02 | 43.31234 | 8.68352 | 18416 ft | 313 kts | 290° |
| 2026-05-04 15:02 | 43.32136 | 8.65612 | 17963 ft | 313 kts | 290° |
| 2026-05-04 15:03 | 43.33034 | 8.62885 | 17546 ft | 311 kts | 290° |
| 2026-05-04 15:03 | 43.33710 | 8.60091 | 17150 ft | 306 kts | 279° |
| 2026-05-04 15:03 | 43.33959 | 8.57262 | 16852 ft | 298 kts | 268° |
| 2026-05-04 15:03 | 43.33825 | 8.54478 | 16671 ft | 287 kts | 261° |
| 2026-05-04 15:04 | 43.33592 | 8.51784 | 16470 ft | 280 kts | 261° |
| 2026-05-04 15:04 | 43.33373 | 8.49160 | 16280 ft | 273 kts | 261° |
| 2026-05-04 15:04 | 43.33166 | 8.46595 | 16098 ft | 266 kts | 261° |
| 2026-05-04 15:04 | 43.32959 | 8.44049 | 15923 ft | 272 kts | 261° |
| 2026-05-04 15:05 | 43.32747 | 8.41488 | 15714 ft | 274 kts | 261° |
| 2026-05-04 15:05 | 43.32528 | 8.38887 | 15513 ft | 273 kts | 261° |
| 2026-05-04 15:05 | 43.32309 | 8.36299 | 15332 ft | 272 kts | 261° |
| 2026-05-04 15:05 | 43.32092 | 8.33707 | 15125 ft | 271 kts | 261° |
| 2026-05-04 15:06 | 43.31878 | 8.31166 | 14938 ft | 270 kts | 261° |
| 2026-05-04 15:06 | 43.31662 | 8.28610 | 14747 ft | 269 kts | 261° |
| 2026-05-04 15:06 | 43.31443 | 8.26055 | 14558 ft | 268 kts | 261° |
| 2026-05-04 15:07 | 43.31005 | 8.20998 | 14174 ft | 265 kts | 261° |
| 2026-05-04 15:07 | 43.30791 | 8.18517 | 13997 ft | 264 kts | 261° |
| 2026-05-04 15:07 | 43.30578 | 8.16021 | 13805 ft | 263 kts | 261° |
| 2026-05-04 15:07 | 43.30384 | 8.13523 | 13605 ft | 262 kts | 265° |
| 2026-05-04 15:08 | 43.30464 | 8.11021 | 13421 ft | 263 kts | 276° |
| 2026-05-04 15:08 | 43.30920 | 8.08578 | 13228 ft | 265 kts | 288° |
| 2026-05-04 15:08 | 43.31730 | 8.06298 | 13039 ft | 267 kts | 297° |
| 2026-05-04 15:08 | 43.32655 | 8.04089 | 12855 ft | 266 kts | 296° |
| 2026-05-04 15:09 | 43.33559 | 8.01911 | 12670 ft | 265 kts | 296° |
| 2026-05-04 15:09 | 43.34468 | 7.99707 | 12480 ft | 264 kts | 296° |
| 2026-05-04 15:09 | 43.35373 | 7.97514 | 12296 ft | 263 kts | 296° |
| 2026-05-04 15:10 | 43.37171 | 7.93150 | 11928 ft | 261 kts | 296° |
| 2026-05-04 15:10 | 43.38064 | 7.90973 | 11727 ft | 261 kts | 296° |
| 2026-05-04 15:10 | 43.39818 | 7.86726 | 11401 ft | 241 kts | 296° |
| 2026-05-04 15:11 | 43.40621 | 7.84791 | 11207 ft | 225 kts | 295° |
| 2026-05-04 15:11 | 43.41242 | 7.82930 | 11055 ft | 209 kts | 285° |
| 2026-05-04 15:11 | 43.41626 | 7.80997 | 10918 ft | 215 kts | 277° |
| 2026-05-04 15:11 | 43.41808 | 7.78941 | 10752 ft | 218 kts | 271° |
| 2026-05-04 15:12 | 43.41940 | 7.76858 | 10591 ft | 219 kts | 271° |
| 2026-05-04 15:12 | 43.42077 | 7.74768 | 10428 ft | 219 kts | 271° |
| 2026-05-04 15:12 | 43.42216 | 7.72679 | 10261 ft | 219 kts | 271° |
| 2026-05-04 15:12 | 43.42357 | 7.70584 | 10095 ft | 219 kts | 271° |
| 2026-05-04 15:13 | 43.42497 | 7.68495 | 9937 ft | 220 kts | 271° |
| 2026-05-04 15:13 | 43.42635 | 7.66388 | 9758 ft | 220 kts | 271° |
| 2026-05-04 15:13 | 43.42769 | 7.64323 | 9586 ft | 216 kts | 271° |
| 2026-05-04 15:13 | 43.42899 | 7.62325 | 9423 ft | 203 kts | 271° |
| 2026-05-04 15:14 | 43.43023 | 7.60453 | 9277 ft | 189 kts | 270° |
| 2026-05-04 15:14 | 43.43140 | 7.58609 | 9160 ft | 204 kts | 270° |
| 2026-05-04 15:14 | 43.43263 | 7.56615 | 9005 ft | 211 kts | 271° |
| 2026-05-04 15:14 | 43.43379 | 7.54787 | 8853 ft | 213 kts | 271° |
| 2026-05-04 15:15 | 43.43509 | 7.52748 | 8692 ft | 214 kts | 270° |
| 2026-05-04 15:15 | 43.43635 | 7.50731 | 8534 ft | 213 kts | 270° |
| 2026-05-04 15:15 | 43.43761 | 7.48695 | 8377 ft | 214 kts | 271° |
| 2026-05-04 15:16 | 43.44015 | 7.44639 | 8048 ft | 203 kts | 271° |
| 2026-05-04 15:16 | 43.44137 | 7.42786 | 7923 ft | 187 kts | 270° |
| 2026-05-04 15:16 | 43.44362 | 7.39231 | 7641 ft | 186 kts | 270° |
| 2026-05-04 15:17 | 43.44470 | 7.37467 | 7501 ft | 187 kts | 270° |
| 2026-05-04 15:17 | 43.44688 | 7.33912 | 7223 ft | 187 kts | 270° |
| 2026-05-04 15:17 | 43.44799 | 7.32101 | 7088 ft | 195 kts | 271° |
| 2026-05-04 15:18 | 43.44913 | 7.30216 | 6952 ft | 198 kts | 271° |
| 2026-05-04 15:18 | 43.45028 | 7.28326 | 6781 ft | 199 kts | 271° |
| 2026-05-04 15:18 | 43.45144 | 7.26424 | 6634 ft | 199 kts | 271° |
| 2026-05-04 15:19 | 43.45378 | 7.22638 | 6342 ft | 200 kts | 272° |
| 2026-05-04 15:19 | 43.45494 | 7.20775 | 6167 ft | 183 kts | 271° |
| 2026-05-04 15:19 | 43.45700 | 7.17438 | 5930 ft | 172 kts | 271° |
| 2026-05-04 15:20 | 43.45796 | 7.15796 | 5804 ft | 172 kts | 271° |
| 2026-05-04 15:20 | 43.45891 | 7.14160 | 5676 ft | 171 kts | 272° |
| 2026-05-04 15:20 | 43.45988 | 7.12525 | 5552 ft | 171 kts | 272° |
| 2026-05-04 15:20 | 43.46085 | 7.10904 | 5417 ft | 172 kts | 272° |
| 2026-05-04 15:21 | 43.46184 | 7.09265 | 5261 ft | 171 kts | 273° |
| 2026-05-04 15:21 | 43.46283 | 7.07637 | 5122 ft | 170 kts | 273° |
| 2026-05-04 15:21 | 43.46513 | 7.04367 | 4852 ft | 172 kts | 284° |
| 2026-05-04 15:22 | 43.46985 | 7.02890 | 4676 ft | 171 kts | 307° |
| 2026-05-04 15:22 | 43.47803 | 7.01730 | 4278 ft | 165 kts | 331° |
| 2026-05-04 15:22 | 43.49880 | 7.00953 | 4017 ft | 151 kts | 11° |
| 2026-05-04 15:23 | 43.50881 | 7.01279 | 3880 ft | 145 kts | 30° |
| 2026-05-04 15:23 | 43.51729 | 7.01994 | 3728 ft | 141 kts | 46° |
| 2026-05-04 15:23 | 43.52420 | 7.02926 | 3563 ft | 138 kts | 50° |
| 2026-05-04 15:23 | 43.53090 | 7.03839 | 3393 ft | 137 kts | 49° |
| 2026-05-04 15:24 | 43.54446 | 7.05691 | 3026 ft | 137 kts | 49° |
| 2026-05-04 15:24 | 43.55789 | 7.07527 | 2659 ft | 134 kts | 49° |
| 2026-05-04 15:25 | 43.56444 | 7.08423 | 2493 ft | 134 kts | 49° |
| 2026-05-04 15:25 | 43.57115 | 7.09341 | 2297 ft | 135 kts | 49° |
| 2026-05-04 15:25 | 43.57768 | 7.10235 | 2122 ft | 134 kts | 50° |
| 2026-05-04 15:26 | 43.59090 | 7.12045 | 1758 ft | 133 kts | 49° |
| 2026-05-04 15:26 | 43.59745 | 7.12943 | 1561 ft | 133 kts | 49° |
| 2026-05-04 15:26 | 43.61066 | 7.14754 | 1204 ft | 134 kts | 49° |
| 2026-05-04 15:27 | 43.61719 | 7.15649 | 1018 ft | 134 kts | 49° |
| 2026-05-04 15:27 | 43.63051 | 7.17477 | 661 ft | 135 kts | 50° |
| 2026-05-04 15:28 | 43.64358 | 7.19270 | 307 ft | 131 kts | 53° |
| 2026-05-04 15:28 | 43.64994 | 7.20144 | 135 ft | 128 kts | 54° |
| 2026-05-04 15:28 | 43.65972 | 7.21518 | 21 ft | 48 kts | 45° |
| 2026-05-04 15:29 | 43.66201 | 7.21823 | 21 ft | 41 kts | 43° |
| 2026-05-04 15:30 | 43.66488 | 7.22039 | 21 ft | 0 kts | 14° |
| 2026-05-04 15:32 | 43.66502 | 7.22044 | 21 ft | 5 kts | 14° |
| 2026-05-04 15:32 | 43.66567 | 7.22008 | 23 ft | 5 kts | 315° |
| 2026-05-04 15:33 | 43.66639 | 7.21902 | 24 ft | 6 kts | 300° |
| 2026-05-04 15:34 | 43.66535 | 7.21677 | 24 ft | 5 kts | 284° |
| 2026-05-04 15:34 | 43.66557 | 7.21631 | 26 ft | 6 kts | 314° |
| 2026-05-04 15:34 | 43.66566 | 7.21618 | 26 ft | 0 kts | 314° |